Terminal Aerodrome Forecast
Issued by NWS

Home | Current Version | Previous Version | Text Only | Print | Product List | Glossary On
Versions: 1 2 3 4 5 6 7 8 9 10 11 12 13 14 15 16 17
523
FTUS43 KEAX 232320
TAFSTJ
TAF
KSTJ 232320Z 2400/2424 33027G35KT P6SM BKN100
     FM240400 31010KT P6SM SCT080
     FM241500 33022G32KT P6SM FEW200=

USA.gov is the U.S. government's official web portal to all federal, state and local government web resources and services.